Time;durP1;ratioP1;P1;durP2;ratioP2;P2;SDS_P1;SDS_P2;PMS_P1;PMS_P2;Temp;Humidity;BMP_temperature;BMP_pressure;BME280_temperature;BME280_humidity;BME280_pressure;Samples;Min_cycle;Max_cycle;Signal;HPM_P1;HPM_P2
2021/12/20 00:02:59;;;;;;;0.00;0.00;;;0.30;99.90;;;;;;10293657;28;20034;-84
2021/12/20 00:08:00;;;;;;;0.13;0.13;;;0.30;99.90;;;;;;10292797;28;20437;-85
2021/12/20 00:13:01;;;;;;;0.00;0.00;;;0.30;99.90;;;;;;10293514;28;20038;-85
2021/12/20 00:18:02;;;;;;;0.00;0.00;;;0.30;99.90;;;;;;10292326;28;20035;-86
2021/12/20 00:23:04;;;;;;;0.00;0.00;;;0.40;99.90;;;;;;10292224;28;20042;-83
2021/12/20 00:28:05;;;;;;;0.00;0.00;;;0.40;99.90;;;;;;10292193;28;20058;-84
2021/12/20 00:33:06;;;;;;;0.43;0.43;;;0.40;99.90;;;;;;10292582;28;20039;-86
2021/12/20 00:43:26;;;;;;;0.00;0.00;;;0.40;99.90;;;;;;10291827;28;20043;-84
2021/12/20 00:48:27;;;;;;;1.57;0.73;;;0.30;99.90;;;;;;10290780;28;20039;-84
2021/12/20 00:53:28;;;;;;;0.00;0.00;;;0.30;99.90;;;;;;10291377;28;20058;-85
2021/12/20 00:58:28;;;;;;;0.20;0.20;;;0.30;99.90;;;;;;10273596;28;20074;-85
2021/12/20 01:03:32;;;;;;;0.00;0.00;;;0.40;99.90;;;;;;10291458;28;20062;-84
2021/12/20 01:08:36;;;;;;;0.33;0.33;;;0.40;99.90;;;;;;10290550;28;20117;-85
2021/12/20 01:13:40;;;;;;;0.00;0.00;;;0.40;99.90;;;;;;10290964;28;20814;-86
2021/12/20 01:18:41;;;;;;;0.40;0.40;;;0.40;99.90;;;;;;10290233;28;20023;-84
2021/12/20 01:23:42;;;;;;;0.00;0.00;;;0.40;99.90;;;;;;10289713;28;20043;-84
2021/12/20 01:28:43;;;;;;;0.10;0.10;;;0.40;99.90;;;;;;10290631;28;20042;-84
2021/12/20 01:33:44;;;;;;;0.00;0.00;;;0.40;99.90;;;;;;10289500;28;20034;-84
2021/12/20 01:38:45;;;;;;;0.00;0.00;;;0.40;99.90;;;;;;10289650;28;20034;-85
2021/12/20 01:43:45;;;;;;;0.60;0.60;;;0.40;99.90;;;;;;10289295;28;20609;-83
2021/12/20 01:48:47;;;;;;;0.27;0.27;;;0.40;99.90;;;;;;10288962;28;20034;-84
2021/12/20 01:53:48;;;;;;;0.00;0.00;;;0.30;99.90;;;;;;10288353;28;20487;-84
2021/12/20 01:58:48;;;;;;;0.00;0.00;;;0.40;99.90;;;;;;10289019;28;20030;-84
2021/12/20 02:03:55;;;;;;;2.07;0.53;;;0.30;99.90;;;;;;10288476;28;20043;-84
2021/12/20 02:08:58;;;;;;;0.00;0.00;;;0.40;99.90;;;;;;10268983;28;20394;-85
2021/12/20 02:14:01;;;;;;;0.10;0.10;;;0.50;99.90;;;;;;10287538;28;20074;-85
2021/12/20 02:19:06;;;;;;;0.00;0.00;;;0.50;99.90;;;;;;10287189;28;20035;-84
2021/12/20 02:24:07;;;;;;;0.20;0.20;;;0.60;99.90;;;;;;10287393;28;20038;-84
2021/12/20 02:29:09;;;;;;;0.00;0.00;;;0.60;99.90;;;;;;10286756;28;20093;-84
2021/12/20 02:39:30;;;;;;;0.20;0.20;;;0.60;99.90;;;;;;10287366;28;20038;-84
2021/12/20 02:44:31;;;;;;;1.30;1.20;;;0.70;99.90;;;;;;10287199;28;20486;-83
2021/12/20 02:49:33;;;;;;;0.00;0.00;;;0.70;99.90;;;;;;10286910;28;20019;-85
2021/12/20 02:54:35;;;;;;;0.00;0.00;;;0.70;99.90;;;;;;10269470;28;20125;-85
2021/12/20 02:59:36;;;;;;;0.17;0.17;;;0.70;99.90;;;;;;10286967;28;20034;-83
2021/12/20 03:04:37;;;;;;;0.00;0.00;;;0.70;99.90;;;;;;10265195;28;20035;-87
2021/12/20 03:09:43;;;;;;;0.00;0.00;;;0.70;99.90;;;;;;10283448;28;20035;-84
2021/12/20 03:14:47;;;;;;;0.00;0.00;;;0.70;99.90;;;;;;10280613;28;20027;-84
2021/12/20 03:19:48;;;;;;;0.07;0.07;;;0.70;99.90;;;;;;10267568;28;20031;-85
2021/12/20 03:24:49;;;;;;;0.00;0.00;;;0.70;99.90;;;;;;10289747;28;20050;-84
2021/12/20 03:29:49;;;;;;;0.00;0.00;;;0.70;99.90;;;;;;10294872;28;20035;-84
2021/12/20 03:34:50;;;;;;;0.00;0.00;;;0.70;99.90;;;;;;10294234;28;20042;-84
2021/12/20 03:39:51;;;;;;;0.00;0.00;;;0.70;99.90;;;;;;10293899;28;20471;-84
2021/12/20 03:44:51;;;;;;;0.00;0.00;;;0.70;99.90;;;;;;10276329;28;20041;-84
2021/12/20 03:49:52;;;;;;;0.00;0.00;;;0.70;99.90;;;;;;10293654;28;20035;-84
2021/12/20 03:54:53;;;;;;;1.90;1.23;;;0.70;99.90;;;;;;10293709;28;20038;-84
2021/12/20 03:59:54;;;;;;;0.00;0.00;;;0.70;99.90;;;;;;10292966;28;20065;-85
2021/12/20 04:04:54;;;;;;;0.00;0.00;;;0.70;99.90;;;;;;10292719;28;20050;-82
2021/12/20 04:09:55;;;;;;;0.10;0.10;;;0.70;99.90;;;;;;10293205;28;20046;-83
2021/12/20 04:14:56;;;;;;;0.10;0.10;;;0.70;99.90;;;;;;10275363;28;20467;-86
2021/12/20 04:19:57;;;;;;;0.73;0.73;;;0.70;99.90;;;;;;10291619;28;20026;-83
2021/12/20 04:24:57;;;;;;;0.00;0.00;;;0.70;99.90;;;;;;10273268;28;20141;-88
2021/12/20 04:29:58;;;;;;;0.50;0.50;;;0.70;99.90;;;;;;10292037;28;20022;-86
2021/12/20 04:34:59;;;;;;;0.37;0.37;;;0.70;99.90;;;;;;10290913;28;20042;-87
2021/12/20 04:40:05;;;;;;;0.00;0.00;;;0.70;99.90;;;;;;10292112;28;20113;-84
2021/12/20 04:45:05;;;;;;;;;;;0.70;99.90;;;;;;10291161;28;20027;-83
2021/12/20 04:50:07;;;;;;;0.00;0.00;;;0.70;99.90;;;;;;10291631;28;19909;-85
2021/12/20 04:55:10;;;;;;;0.00;0.00;;;0.60;99.90;;;;;;10291333;28;20034;-83
2021/12/20 05:00:15;;;;;;;0.00;0.00;;;0.60;99.90;;;;;;10289729;28;20027;-87
2021/12/20 05:05:21;;;;;;;0.00;0.00;;;0.60;99.90;;;;;;10291060;28;20094;-87
2021/12/20 05:10:27;;;;;;;0.00;0.00;;;0.60;99.90;;;;;;10273380;28;20089;-82
2021/12/20 05:15:27;;;;;;;;;;;0.60;99.90;;;;;;10290304;28;20026;-87
2021/12/20 05:20:28;;;;;;;0.10;0.10;;;0.60;99.90;;;;;;10290891;28;19980;-83
2021/12/20 05:25:29;;;;;;;0.20;0.20;;;0.60;99.90;;;;;;10289401;28;20058;-80
2021/12/20 05:30:30;;;;;;;2.23;2.03;;;0.60;99.90;;;;;;10290324;28;20039;-86
2021/12/20 05:35:31;;;;;;;0.00;0.00;;;0.60;99.90;;;;;;10287196;28;20060;-82
2021/12/20 05:40:32;;;;;;;0.10;0.10;;;0.60;99.90;;;;;;10289936;28;20549;-82
2021/12/20 05:45:33;;;;;;;0.20;0.20;;;0.60;99.90;;;;;;10284267;28;20129;-82
2021/12/20 05:50:33;;;;;;;0.10;0.10;;;0.60;99.90;;;;;;10287679;28;20147;-82
2021/12/20 05:55:34;;;;;;;2.10;2.00;;;0.60;99.90;;;;;;10280359;28;20031;-86
2021/12/20 06:00:35;;;;;;;0.00;0.00;;;0.60;99.90;;;;;;10249068;28;20046;-82
2021/12/20 06:05:41;;;;;;;0.00;0.00;;;0.60;99.90;;;;;;10280827;28;20031;-85
2021/12/20 06:10:41;;;;;;;;;;;0.60;99.90;;;;;;10289683;28;20077;-82
2021/12/20 06:15:42;;;;;;;0.00;0.00;;;0.60;99.90;;;;;;10288571;28;20056;-86
2021/12/20 06:20:44;;;;;;;0.40;0.40;;;0.60;99.90;;;;;;10288512;28;20146;-85
2021/12/20 06:25:45;;;;;;;0.40;0.40;;;0.60;99.90;;;;;;10270560;28;20031;-83
2021/12/20 06:30:47;;;;;;;0.50;0.50;;;0.60;99.90;;;;;;10282085;28;20027;-83
2021/12/20 06:35:48;;;;;;;0.00;0.00;;;0.60;99.90;;;;;;10247890;29;21398;-83
2021/12/20 06:40:50;;;;;;;0.17;0.17;;;0.60;99.90;;;;;;10248393;29;20038;-83
2021/12/20 06:45:51;;;;;;;0.00;0.00;;;0.60;99.90;;;;;;10248147;29;20030;-82
2021/12/20 06:50:52;;;;;;;0.00;0.00;;;0.60;99.90;;;;;;10247030;29;20055;-83
2021/12/20 06:55:53;;;;;;;0.00;0.00;;;0.60;99.90;;;;;;10248413;29;20090;-83
2021/12/20 07:00:53;;;;;;;0.23;0.23;;;0.60;99.90;;;;;;10229265;29;20063;-83
2021/12/20 07:05:54;;;;;;;0.00;0.00;;;0.60;99.90;;;;;;10247196;29;20047;-83
2021/12/20 07:10:55;;;;;;;0.00;0.00;;;0.60;99.90;;;;;;10246959;29;20034;-87
2021/12/20 07:15:56;;;;;;;0.10;0.10;;;0.60;99.90;;;;;;10247091;29;20045;-82
2021/12/20 07:20:56;;;;;;;1.13;0.93;;;0.60;99.90;;;;;;10246661;29;20035;-85
2021/12/20 07:25:57;;;;;;;0.00;0.00;;;0.60;99.90;;;;;;10247231;29;20107;-84
2021/12/20 07:30:58;;;;;;;0.10;0.10;;;0.70;99.90;;;;;;10229978;29;20046;-82
2021/12/20 07:35:58;;;;;;;0.00;0.00;;;0.70;99.90;;;;;;10246567;29;20515;-82
2021/12/20 07:40:59;;;;;;;0.00;0.00;;;0.70;99.90;;;;;;10246848;29;20038;-85
2021/12/20 07:46:00;;;;;;;0.00;0.00;;;0.70;99.90;;;;;;10246857;29;20031;-83
2021/12/20 07:51:01;;;;;;;0.20;0.20;;;0.70;99.90;;;;;;10228959;29;20047;-84
2021/12/20 07:56:03;;;;;;;0.77;0.77;;;0.70;99.90;;;;;;10246484;29;20031;-83
2021/12/20 08:01:04;;;;;;;0.33;0.33;;;0.70;99.90;;;;;;10228650;29;20387;-85
2021/12/20 08:06:05;;;;;;;0.00;0.00;;;0.70;99.90;;;;;;10245935;28;20190;-82
2021/12/20 08:11:07;;;;;;;0.30;0.30;;;0.70;99.90;;;;;;10267349;28;20039;-84
2021/12/20 08:16:07;;;;;;;0.83;0.40;;;0.70;99.90;;;;;;10274218;28;20640;-82
2021/12/20 08:21:09;;;;;;;0.53;0.53;;;0.80;99.90;;;;;;10260086;28;20039;-84
2021/12/20 08:26:10;;;;;;;0.00;0.00;;;0.80;99.90;;;;;;10292665;28;20125;-83
2021/12/20 08:31:11;;;;;;;0.00;0.00;;;0.80;99.90;;;;;;10292079;28;20038;-82
2021/12/20 08:36:12;;;;;;;0.00;0.00;;;0.80;99.90;;;;;;10282766;28;20026;-86
2021/12/20 08:41:13;;;;;;;3.70;2.10;;;0.80;99.90;;;;;;10266900;28;20045;-82
2021/12/20 08:46:15;;;;;;;0.10;0.10;;;0.90;99.90;;;;;;10291477;28;20510;-82
2021/12/20 08:51:16;;;;;;;0.43;0.43;;;0.80;99.90;;;;;;10291686;28;20051;-86
2021/12/20 08:56:17;;;;;;;0.00;0.00;;;0.80;99.90;;;;;;10254624;28;20035;-83
2021/12/20 09:01:18;;;;;;;0.00;0.00;;;0.90;99.90;;;;;;10234075;29;20029;-84
2021/12/20 09:06:23;;;;;;;0.00;0.00;;;0.90;99.90;;;;;;10285984;28;20414;-87
2021/12/20 09:11:26;;;;;;;0.10;0.10;;;0.90;99.90;;;;;;10291493;28;20234;-84
2021/12/20 09:16:27;;;;;;;0.30;0.30;;;0.80;99.90;;;;;;10264700;28;20739;-82
2021/12/20 09:21:27;;;;;;;0.57;0.57;;;0.90;99.90;;;;;;10250532;28;20039;-82
2021/12/20 09:26:28;;;;;;;0.10;0.10;;;0.90;99.90;;;;;;10232791;28;20028;-82
2021/12/20 09:31:29;;;;;;;0.53;0.53;;;0.90;99.90;;;;;;10263631;28;20049;-84
2021/12/20 09:36:29;;;;;;;0.10;0.10;;;1.00;99.90;;;;;;10272051;28;20493;-82
2021/12/20 09:46:40;;;;;;;0.30;0.30;;;1.00;99.90;;;;;;10273641;28;20410;-81
2021/12/20 09:51:41;;;;;;;0.20;0.20;;;1.00;99.90;;;;;;10271136;28;20054;-86
2021/12/20 09:56:43;;;;;;;2.53;1.80;;;1.00;99.90;;;;;;10265082;28;20081;-82
2021/12/20 10:01:44;;;;;;;0.00;0.00;;;1.00;99.90;;;;;;10267184;28;20054;-82
2021/12/20 10:06:53;;;;;;;0.00;0.00;;;0.90;99.90;;;;;;10272089;28;20050;-82
2021/12/20 10:12:11;;;;;;;0.00;0.00;;;0.90;99.90;;;;;;10268904;28;20118;-82
2021/12/20 10:17:12;;;;;;;0.00;0.00;;;0.90;99.90;;;;;;10248363;29;20035;-82
2021/12/20 10:22:28;;;;;;;0.17;0.17;;;0.90;99.90;;;;;;10249014;29;20066;-82
2021/12/20 10:27:31;;;;;;;0.10;0.10;;;0.90;99.90;;;;;;10248689;29;20039;-86
2021/12/20 10:32:43;;;;;;;0.00;0.00;;;0.90;99.90;;;;;;10248353;28;20026;-84
2021/12/20 10:37:45;;;;;;;0.00;0.00;;;0.90;99.90;;;;;;10264886;28;20645;-82
2021/12/20 10:42:46;;;;;;;0.37;0.37;;;0.90;99.90;;;;;;10264012;28;20106;-82
2021/12/20 10:47:48;;;;;;;0.00;0.00;;;0.90;99.90;;;;;;10281663;28;20457;-85
2021/12/20 10:52:49;;;;;;;0.00;0.00;;;0.80;99.90;;;;;;10288151;28;20051;-82
2021/12/20 10:57:50;;;;;;;0.00;0.00;;;0.80;99.90;;;;;;10287537;28;20034;-83
2021/12/20 11:03:44;;;;;;;0.10;0.10;;;0.70;99.90;;;;;;10287352;28;20041;-82
2021/12/20 11:09:13;;;;;;;0.20;0.20;;;0.80;99.90;;;;;;10274290;28;20125;-82
2021/12/20 11:13:46;;;;;;;0.00;0.00;;;0.80;99.90;;;;;;10266654;28;20066;-84
2021/12/20 11:18:47;;;;;;;0.07;0.07;;;0.80;99.90;;;;;;10287583;28;20090;-82
2021/12/20 11:23:48;;;;;;;0.13;0.13;;;0.80;99.90;;;;;;10286657;28;20096;-82
2021/12/20 11:28:50;;;;;;;0.00;0.00;;;0.80;99.90;;;;;;10286070;28;20042;-81
2021/12/20 11:33:51;;;;;;;1.00;1.00;;;0.90;99.90;;;;;;10286492;28;20044;-82
2021/12/20 11:38:53;;;;;;;0.00;0.00;;;0.90;99.90;;;;;;10287197;28;20414;-85
2021/12/20 11:43:57;;;;;;;0.10;0.10;;;1.00;99.90;;;;;;10286160;28;20039;-82
2021/12/20 11:48:59;;;;;;;0.00;0.00;;;1.00;99.90;;;;;;10268206;28;20042;-86
2021/12/20 11:53:59;;;;;;;0.00;0.00;;;1.00;99.90;;;;;;10253932;29;20086;-82
2021/12/20 11:59:01;;;;;;;0.40;0.40;;;0.90;99.90;;;;;;10253930;29;20083;-83
2021/12/20 12:04:01;;;;;;;0.03;0.03;;;0.90;99.90;;;;;;10254274;29;20035;-85
2021/12/20 12:09:03;;;;;;;0.20;0.20;;;0.90;99.90;;;;;;10253467;28;20045;-82
2021/12/20 12:14:07;;;;;;;0.10;0.10;;;1.00;99.90;;;;;;10253368;29;20607;-83
2021/12/20 12:19:09;;;;;;;0.00;0.00;;;1.00;99.90;;;;;;10253864;29;20585;-84
2021/12/20 12:24:13;;;;;;;0.00;0.00;;;0.90;99.90;;;;;;10253008;28;20031;-82
2021/12/20 12:29:23;;;;;;;0.00;0.00;;;0.90;99.90;;;;;;10252945;29;20039;-83
2021/12/20 12:34:37;;;;;;;1.60;1.50;;;0.90;99.90;;;;;;10251623;28;20055;-82
2021/12/20 12:39:38;;;;;;;0.00;0.00;;;0.80;99.90;;;;;;10251274;28;20050;-81
2021/12/20 12:44:49;;;;;;;0.10;0.10;;;0.80;99.90;;;;;;10252230;29;20031;-82
2021/12/20 12:49:55;;;;;;;0.00;0.00;;;0.80;99.90;;;;;;10251504;28;20488;-82
2021/12/20 12:54:58;;;;;;;0.00;0.00;;;0.80;99.90;;;;;;10252253;29;20142;-85
2021/12/20 13:00:00;;;;;;;0.00;0.00;;;0.80;99.90;;;;;;10251095;29;20027;-82
2021/12/20 13:05:07;;;;;;;0.00;0.00;;;0.80;99.90;;;;;;10251979;29;20035;-82
2021/12/20 13:10:20;;;;;;;0.53;0.37;;;0.80;99.90;;;;;;10234158;29;20575;-83
2021/12/20 13:20:43;;;;;;;0.73;0.73;;;0.70;99.90;;;;;;10251491;29;20069;-82
2021/12/20 13:25:46;;;;;;;0.00;0.00;;;0.70;99.90;;;;;;10249206;28;20030;-82
2021/12/20 13:30:54;;;;;;;0.13;0.13;;;0.70;99.90;;;;;;10250914;29;20086;-83
2021/12/20 13:35:56;;;;;;;1.67;0.57;;;0.70;99.90;;;;;;10250691;28;20019;-82
2021/12/20 13:41:04;;;;;;;0.00;0.00;;;0.70;99.90;;;;;;10250277;28;20035;-82
2021/12/20 13:46:05;;;;;;;0.00;0.00;;;0.70;99.90;;;;;;10249981;28;20038;-81
2021/12/20 13:51:05;;;;;;;2.10;1.07;;;0.70;99.90;;;;;;10260425;28;20051;-86
2021/12/20 13:56:07;;;;;;;0.00;0.00;;;0.70;99.90;;;;;;10265431;28;20382;-83
2021/12/20 14:01:07;;;;;;;0.00;0.00;;;0.70;99.90;;;;;;10289506;28;20442;-83
2021/12/20 14:06:09;;;;;;;0.00;0.00;;;0.70;99.90;;;;;;10288074;28;20042;-82
2021/12/20 14:11:19;;;;;;;0.53;0.53;;;0.70;99.90;;;;;;10288880;28;20042;-82
2021/12/20 14:16:20;;;;;;;0.70;0.70;;;0.70;99.90;;;;;;10277638;28;20085;-81
2021/12/20 14:21:24;;;;;;;0.37;0.37;;;0.70;99.90;;;;;;10255223;28;20066;-83
2021/12/20 14:26:27;;;;;;;0.53;0.53;;;0.70;99.90;;;;;;10288017;28;20114;-83
2021/12/20 14:31:49;;;;;;;0.30;0.30;;;0.60;99.90;;;;;;10288051;28;20030;-83
2021/12/20 14:36:50;;;;;;;0.00;0.00;;;0.60;99.90;;;;;;10287090;28;20031;-83
2021/12/20 14:42:00;;;;;;;0.00;0.00;;;0.70;99.90;;;;;;10287782;28;20097;-83
2021/12/20 14:47:12;;;;;;;1.43;1.43;;;0.70;99.90;;;;;;10287672;28;20122;-83
2021/12/20 14:52:16;;;;;;;3.97;3.70;;;0.70;99.90;;;;;;10286362;28;20518;-83
2021/12/20 14:57:29;;;;;;;0.00;0.00;;;0.70;99.90;;;;;;10287038;28;20023;-84
2021/12/20 15:02:39;;;;;;;0.10;0.10;;;0.70;99.90;;;;;;10246767;28;20037;-82
2021/12/20 15:07:42;;;;;;;0.20;0.20;;;0.70;99.90;;;;;;10276341;28;20514;-85
2021/12/20 15:12:42;;;;;;;0.63;0.43;;;0.70;99.90;;;;;;10286947;28;20033;-83
2021/12/20 15:17:43;;;;;;;0.13;0.13;;;0.70;99.90;;;;;;10268305;28;20039;-83
2021/12/20 15:22:44;;;;;;;0.73;0.47;;;0.70;99.90;;;;;;10246367;29;20035;-82
2021/12/20 15:27:44;;;;;;;0.00;0.00;;;0.70;99.90;;;;;;10261301;28;20034;-82
2021/12/20 15:32:45;;;;;;;1.07;1.07;;;0.70;99.90;;;;;;10286213;28;20026;-82
2021/12/20 15:37:46;;;;;;;0.00;0.00;;;0.60;99.90;;;;;;10286402;28;20027;-82
2021/12/20 15:42:58;;;;;;;0.37;0.37;;;0.60;99.90;;;;;;10286723;28;20023;-81
2021/12/20 15:47:59;;;;;;;0.00;0.00;;;0.60;99.90;;;;;;10268603;28;20093;-82
2021/12/20 15:53:00;;;;;;;0.20;0.20;;;0.60;99.90;;;;;;10264462;28;20054;-81
2021/12/20 15:58:01;;;;;;;0.20;0.20;;;0.70;99.90;;;;;;10246349;28;20031;-83
2021/12/20 16:03:02;;;;;;;0.40;0.40;;;0.60;99.90;;;;;;10244392;28;20114;-84
2021/12/20 16:08:03;;;;;;;2.00;1.80;;;0.60;99.90;;;;;;10245546;28;20131;-82
2021/12/20 16:13:04;;;;;;;1.40;1.30;;;0.60;99.90;;;;;;10246276;29;20039;-82
2021/12/20 16:18:05;;;;;;;0.00;0.00;;;0.50;99.90;;;;;;10245964;29;20039;-84
2021/12/20 16:23:10;;;;;;;0.90;0.87;;;0.50;99.90;;;;;;10245671;29;20031;-83
2021/12/20 16:28:11;;;;;;;1.80;0.73;;;0.40;99.90;;;;;;10286198;28;20074;-85
2021/12/20 16:33:12;;;;;;;0.93;0.43;;;0.40;99.90;;;;;;10279923;28;20085;-85
2021/12/20 16:38:13;;;;;;;0.30;0.10;;;0.40;99.90;;;;;;10292074;28;20506;-84
2021/12/20 16:43:15;;;;;;;0.23;0.23;;;0.40;99.90;;;;;;10289524;28;20038;-85
2021/12/20 16:53:22;;;;;;;2.55;1.95;;;0.30;99.90;;;;;;10285049;28;20057;-84
2021/12/20 16:58:23;;;;;;;4.40;2.77;;;0.30;99.90;;;;;;10286934;28;20039;-88
2021/12/20 17:03:41;;;;;;;11.73;4.00;;;0.30;99.90;;;;;;10289226;28;20109;-84
2021/12/20 17:08:51;;;;;;;9.00;3.93;;;0.30;99.90;;;;;;10284717;28;20074;-84
2021/12/20 17:14:11;;;;;;;6.87;4.00;;;0.30;99.90;;;;;;10290586;28;20125;-83
2021/12/20 17:19:39;;;;;;;10.47;4.37;;;0.30;99.90;;;;;;10289392;28;20355;-85
2021/12/20 17:25:36;;;;;;;10.67;4.40;;;0.20;99.90;;;;;;10289398;28;20114;-84
2021/12/20 17:30:36;;;;;;;16.85;6.05;;;0.10;99.90;;;;;;10254887;28;20039;-83
2021/12/20 17:35:49;;;;;;;12.20;6.23;;;0.10;99.90;;;;;;10272424;28;20387;-84
2021/12/20 17:40:49;;;;;;;8.40;4.70;;;0.10;99.90;;;;;;10285835;28;20074;-85
2021/12/20 17:52:58;;;;;;;15.40;7.03;;;0.00;99.90;;;;;;10283700;28;20047;-83
2021/12/20 17:58:06;;;;;;;14.93;7.47;;;-0.10;99.90;;;;;;10286519;28;20034;-85
2021/12/20 18:03:06;;;;;;;16.43;7.37;;;-0.20;99.90;;;;;;10284047;28;20023;-85
2021/12/20 18:08:07;;;;;;;13.10;6.23;;;-0.20;99.90;;;;;;10286732;28;20047;-83
2021/12/20 18:13:08;;;;;;;15.27;6.53;;;-0.20;99.90;;;;;;10286290;28;20092;-84
2021/12/20 18:23:34;;;;;;;17.27;6.63;;;-0.20;99.90;;;;;;10309413;23;20082;-87
2021/12/20 18:46:40;;;;;;;279.27;110.63;;;-0.30;99.90;;;;;;10275640;28;20515;-89
2021/12/20 18:51:41;;;;;;;17.33;7.97;;;-0.30;99.90;;;;;;10268305;28;20062;-86
2021/12/20 19:08:52;;;;;;;;;;;-0.90;99.90;;;;;;10280541;28;20050;-83
2021/12/20 19:14:09;;;;;;;312.10;111.70;;;-1.00;99.90;;;;;;10278887;28;19914;-84
2021/12/20 19:26:27;;;;;;;7.72;3.42;;;-1.10;99.90;;;;;;10259280;28;20047;-83
2021/12/20 19:43:25;;;;;;;15.27;5.60;;;-1.20;99.90;;;;;;10270594;28;20505;-87
2021/12/20 19:48:26;;;;;;;16.03;5.97;;;-1.20;99.90;;;;;;10263776;28;20113;-83
2021/12/20 19:53:27;;;;;;;14.93;6.83;;;-1.20;99.90;;;;;;10256294;28;20070;-83
2021/12/20 19:58:27;;;;;;;20.93;8.63;;;-1.20;99.90;;;;;;10260728;28;20302;-85
2021/12/20 20:03:28;;;;;;;18.07;7.57;;;-1.20;99.90;;;;;;10274437;28;20034;-83
2021/12/20 20:08:29;;;;;;;19.53;8.07;;;-1.20;99.90;;;;;;10273640;28;20112;-87
2021/12/20 20:13:31;;;;;;;18.60;7.47;;;-1.20;99.90;;;;;;10287062;28;20434;-85
2021/12/20 20:18:31;;;;;;;19.57;7.73;;;-1.20;99.90;;;;;;10289223;28;20497;-83
2021/12/20 20:23:32;;;;;;;16.43;9.00;;;-1.20;99.90;;;;;;10293676;28;20133;-83
2021/12/20 20:28:33;;;;;;;15.33;6.80;;;-1.20;99.90;;;;;;10269600;28;20434;-86
2021/12/20 20:33:33;;;;;;;15.73;6.93;;;-1.20;99.90;;;;;;10278895;28;20023;-84
2021/12/20 20:38:34;;;;;;;13.50;6.00;;;-1.20;99.90;;;;;;10257126;28;20649;-86
2021/12/20 20:43:35;;;;;;;16.40;6.37;;;-1.20;99.90;;;;;;10236776;28;20032;-83
2021/12/20 20:48:36;;;;;;;16.87;6.63;;;-1.20;99.90;;;;;;10286420;28;20042;-84
2021/12/20 20:53:36;;;;;;;19.17;7.30;;;-1.20;99.90;;;;;;10290347;28;20042;-85
2021/12/20 20:58:41;;;;;;;19.97;7.83;;;-1.20;99.90;;;;;;10269770;28;20137;-83
2021/12/20 21:03:42;;;;;;;13.33;6.50;;;-1.20;99.90;;;;;;10280576;28;20027;-83
2021/12/20 21:08:42;;;;;;;19.27;8.30;;;-1.20;99.90;;;;;;10287758;28;20038;-83
2021/12/20 21:13:43;;;;;;;17.03;7.33;;;-1.10;99.90;;;;;;10288390;28;20030;-83
2021/12/20 21:18:44;;;;;;;27.00;11.27;;;-1.10;99.90;;;;;;10284564;28;20470;-83
2021/12/20 21:23:46;;;;;;;20.93;8.60;;;-1.10;99.90;;;;;;10288511;28;20078;-83
2021/12/20 21:28:47;;;;;;;16.40;6.93;;;-1.10;99.90;;;;;;10280314;28;20093;-83
2021/12/20 21:33:48;;;;;;;18.40;6.60;;;-1.00;99.90;;;;;;10285331;28;20026;-84
2021/12/20 21:38:49;;;;;;;13.97;6.43;;;-1.00;99.90;;;;;;10287262;28;20050;-85
2021/12/20 21:43:50;;;;;;;18.53;6.93;;;-1.00;99.90;;;;;;10285977;28;20085;-83
2021/12/20 21:48:51;;;;;;;18.20;6.43;;;-1.00;99.90;;;;;;10287374;28;20475;-83
2021/12/20 21:53:53;;;;;;;14.97;6.07;;;-1.00;99.90;;;;;;10285210;28;20110;-83
2021/12/20 21:58:55;;;;;;;12.40;5.63;;;-1.00;99.90;;;;;;10285775;28;20058;-83
2021/12/20 22:03:59;;;;;;;14.80;6.17;;;-1.10;99.90;;;;;;10279119;28;20035;-83
2021/12/20 22:09:00;;;;;;;14.97;6.07;;;-1.10;99.90;;;;;;10262178;28;20125;-83
2021/12/20 22:14:01;;;;;;;13.13;5.33;;;-1.10;99.90;;;;;;10285458;28;20026;-84
2021/12/20 22:19:03;;;;;;;13.53;5.80;;;-1.10;99.90;;;;;;10249493;28;20055;-83
2021/12/20 22:24:04;;;;;;;15.30;6.37;;;-1.20;99.90;;;;;;10260902;28;20123;-83
2021/12/20 22:29:05;;;;;;;12.83;5.23;;;-1.20;99.90;;;;;;10248783;28;20126;-83
2021/12/20 22:34:06;;;;;;;11.60;5.40;;;-1.30;99.90;;;;;;10279870;28;20027;-83
2021/12/20 22:39:07;;;;;;;14.20;5.80;;;-1.30;99.90;;;;;;10286155;28;20459;-84
2021/12/20 22:44:07;;;;;;;13.90;6.13;;;-1.40;99.90;;;;;;10286696;28;20522;-85
2021/12/20 22:49:08;;;;;;;10.67;4.73;;;-1.50;99.90;;;;;;10280942;28;20596;-84
2021/12/20 22:54:09;;;;;;;20.30;8.80;;;-1.50;99.90;;;;;;10288422;28;20793;-83
2021/12/20 22:59:09;;;;;;;24.07;8.90;;;-1.50;99.90;;;;;;10251821;28;20421;-84
2021/12/20 23:04:10;;;;;;;21.43;8.27;;;-1.50;99.90;;;;;;10283779;28;20165;-83
2021/12/20 23:09:11;;;;;;;25.37;8.40;;;-1.60;99.90;;;;;;10248002;28;20047;-82
2021/12/20 23:19:13;;;;;;;23.23;9.17;;;-1.60;99.90;;;;;;10279004;28;20043;-85
2021/12/20 23:24:15;;;;;;;24.63;9.03;;;-1.50;99.90;;;;;;10282735;28;20057;-84
2021/12/20 23:29:15;;;;;;;20.47;8.60;;;-1.60;99.90;;;;;;10285236;28;20070;-84
2021/12/20 23:34:16;;;;;;;19.10;7.27;;;-1.60;99.90;;;;;;10284029;28;20062;-85
2021/12/20 23:39:25;;;;;;;21.57;8.23;;;-1.60;99.90;;;;;;10252867;28;20467;-84
2021/12/20 23:44:26;;;;;;;18.30;7.40;;;-1.70;99.90;;;;;;10293840;28;20494;-84
2021/12/20 23:49:26;;;;;;;18.30;7.57;;;-1.80;99.90;;;;;;10292292;28;20146;-83
2021/12/20 23:54:27;;;;;;;19.97;9.03;;;-1.80;99.90;;;;;;10292559;28;20041;-83
2021/12/20 23:59:27;;;;;;;19.27;6.60;;;-1.80;99.90;;;;;;10270508;28;20050;-84
